createdAt,value
2023-04-16T00:00:42.128Z,16.42
2023-04-16T00:02:43.619Z,15.57
2023-04-16T00:04:45.480Z,14.00
2023-04-16T00:06:46.937Z,15.40
2023-04-16T00:08:48.342Z,17.50
2023-04-16T00:10:50.705Z,16.73
2023-04-16T00:12:52.099Z,16.45
2023-04-16T00:14:53.474Z,16.25
2023-04-16T00:16:54.944Z,17.27
2023-04-16T00:18:56.361Z,17.08
2023-04-16T00:20:57.914Z,17.20
2023-04-16T00:22:59.290Z,16.42
2023-04-16T00:25:00.680Z,18.02
2023-04-16T00:27:02.264Z,18.00
2023-04-16T00:29:03.718Z,17.15
2023-04-16T00:31:05.386Z,16.70
2023-04-16T00:33:06.980Z,16.45
2023-04-16T00:35:08.506Z,16.73
2023-04-16T00:37:09.909Z,15.80
2023-04-16T00:39:11.438Z,16.42
2023-04-16T00:41:12.898Z,16.15
2023-04-16T00:43:22.036Z,17.02
2023-04-16T00:45:23.487Z,16.63
2023-04-16T00:47:25.397Z,16.83
2023-04-16T00:49:27.396Z,15.05
2023-04-16T00:51:28.880Z,17.48
2023-04-16T00:53:31.217Z,15.82
2023-04-16T00:55:34.954Z,16.38
2023-04-16T00:57:36.325Z,16.65
2023-04-16T00:59:37.818Z,15.23
2023-04-16T01:01:39.458Z,16.45
2023-04-16T01:03:48.299Z,15.93
2023-04-16T01:05:53.458Z,15.52
2023-04-16T01:07:59.116Z,14.48
2023-04-16T01:10:00.583Z,16.20
2023-04-16T01:12:02.090Z,14.88
2023-04-16T01:14:04.104Z,14.45
2023-04-16T01:16:10.385Z,14.88
2023-04-16T01:18:20.025Z,15.13
2023-04-16T01:20:21.550Z,14.55
2023-04-16T01:22:22.954Z,14.15
2023-04-16T01:24:24.350Z,13.73
2023-04-16T01:26:25.829Z,16.17
2023-04-16T01:28:27.302Z,14.07
2023-04-16T01:30:28.746Z,14.25
2023-04-16T01:32:32.289Z,14.73
2023-04-16T01:34:33.768Z,12.75
2023-04-16T01:36:35.208Z,14.75
2023-04-16T01:38:36.598Z,13.25
2023-04-16T01:40:38.627Z,13.85
2023-04-16T01:42:40.066Z,13.35
2023-04-16T01:44:41.449Z,13.18
2023-04-16T01:46:43.682Z,12.40
2023-04-16T01:48:45.574Z,12.00
2023-04-16T01:50:46.984Z,12.32
2023-04-16T01:52:48.402Z,11.27
2023-04-16T01:54:49.782Z,11.93
2023-04-16T01:56:51.149Z,12.88
2023-04-16T01:58:53.144Z,12.43
2023-04-16T02:00:54.607Z,12.60
2023-04-16T02:02:56.333Z,11.98
2023-04-16T02:04:57.846Z,11.52
2023-04-16T02:06:59.291Z,12.85
2023-04-16T02:09:00.664Z,11.75
2023-04-16T02:11:02.198Z,11.90
2023-04-16T02:13:03.637Z,11.90
2023-04-16T02:15:05.450Z,13.10
2023-04-16T02:17:06.871Z,10.73
2023-04-16T02:19:08.584Z,11.57
2023-04-16T02:21:10.301Z,11.20
2023-04-16T02:23:11.925Z,11.57
2023-04-16T02:25:14.254Z,11.98
2023-04-16T02:27:16.005Z,15.77
2023-04-16T02:29:17.464Z,14.98
2023-04-16T02:31:19.587Z,14.18
2023-04-16T02:33:21.319Z,14.13
2023-04-16T02:35:22.762Z,15.07
2023-04-16T02:37:25.815Z,12.93
2023-04-16T02:39:27.284Z,14.52
2023-04-16T02:41:28.738Z,14.38
2023-04-16T02:43:30.295Z,15.07
2023-04-16T02:45:31.726Z,14.70
2023-04-16T02:47:33.200Z,16.05
2023-04-16T02:49:35.787Z,15.52
2023-04-16T02:51:37.184Z,16.88
2023-04-16T02:53:38.596Z,16.60
2023-04-16T02:55:40.075Z,15.40
2023-04-16T02:57:42.354Z,15.60
2023-04-16T02:59:43.831Z,15.43
2023-04-16T03:01:45.531Z,15.15
2023-04-16T03:03:47.019Z,15.23
2023-04-16T03:05:48.581Z,13.73
2023-04-16T03:07:50.639Z,14.65
2023-04-16T03:09:52.117Z,12.07
2023-04-16T03:11:53.512Z,14.13
2023-04-16T03:13:54.980Z,14.00
2023-04-16T03:15:56.382Z,14.60
2023-04-16T03:17:58.024Z,14.32
2023-04-16T03:19:59.506Z,14.52
2023-04-16T03:22:01.046Z,13.48
2023-04-16T03:24:02.710Z,14.30
2023-04-16T03:26:04.284Z,14.05
2023-04-16T03:28:05.899Z,14.93
2023-04-16T03:30:08.690Z,15.27
2023-04-16T03:32:10.081Z,14.98
2023-04-16T03:34:11.502Z,16.98
2023-04-16T03:36:12.866Z,15.18
2023-04-16T03:38:14.293Z,14.82
2023-04-16T03:40:15.694Z,15.27
2023-04-16T03:42:17.236Z,15.60
2023-04-16T03:44:18.754Z,15.30
2023-04-16T03:46:20.373Z,15.88
2023-04-16T03:48:21.917Z,16.17
2023-04-16T03:50:23.296Z,16.40
2023-04-16T03:52:24.853Z,16.58
2023-04-16T03:54:26.739Z,15.65
2023-04-16T03:56:28.154Z,15.40
2023-04-16T03:58:29.580Z,17.20
2023-04-16T04:00:31.478Z,14.85
2023-04-16T04:02:33.074Z,16.83
2023-04-16T04:04:34.843Z,16.15
2023-04-16T04:06:36.325Z,16.85
2023-04-16T04:08:38.804Z,16.42
2023-04-16T04:10:40.237Z,16.98
2023-04-16T04:12:41.629Z,18.27
2023-04-16T04:14:43.180Z,16.98
2023-04-16T04:16:44.645Z,17.60
2023-04-16T04:18:46.092Z,17.63
2023-04-16T04:20:47.498Z,18.50
2023-04-16T04:22:50.429Z,17.75
2023-04-16T04:24:51.819Z,18.15
2023-04-16T04:26:53.219Z,18.98
2023-04-16T04:28:54.637Z,19.40
2023-04-16T04:31:00.151Z,19.58
2023-04-16T04:33:01.883Z,20.45
2023-04-16T04:35:03.836Z,20.15
2023-04-16T04:37:05.656Z,22.45
2023-04-16T04:39:07.462Z,22.20
2023-04-16T04:41:09.065Z,23.15
2023-04-16T04:43:10.449Z,21.30
2023-04-16T04:45:12.068Z,21.42
2023-04-16T04:47:14.803Z,22.45
2023-04-16T04:49:16.242Z,23.42
2023-04-16T04:51:17.636Z,23.20
2023-04-16T04:53:19.174Z,22.63
2023-04-16T04:55:20.791Z,22.20
2023-04-16T04:57:22.206Z,21.58
2023-04-16T04:59:24.408Z,20.08
2023-04-16T05:01:26.005Z,21.77
2023-04-16T05:03:27.503Z,19.73
2023-04-16T05:05:29.101Z,20.27
2023-04-16T05:07:30.795Z,19.88
2023-04-16T05:09:33.193Z,19.55
2023-04-16T05:11:34.583Z,18.30
2023-04-16T05:13:36.069Z,18.92
2023-04-16T05:15:37.803Z,19.10
2023-04-16T05:17:39.270Z,19.73
2023-04-16T05:19:40.751Z,19.35
2023-04-16T05:21:42.257Z,17.55
2023-04-16T05:23:43.686Z,17.60
2023-04-16T05:25:45.215Z,17.38
2023-04-16T05:27:46.795Z,19.83
2023-04-16T05:29:48.166Z,18.50
2023-04-16T05:31:49.904Z,18.63
2023-04-16T05:33:51.308Z,18.33
2023-04-16T05:35:52.716Z,18.52
2023-04-16T05:37:54.103Z,20.05
2023-04-16T05:39:55.543Z,19.02
2023-04-16T05:41:56.990Z,20.65
2023-04-16T05:43:58.651Z,18.45
2023-04-16T05:46:00.336Z,20.40
2023-04-16T05:48:01.834Z,20.00
2023-04-16T05:50:03.362Z,20.05
2023-04-16T05:52:05.639Z,19.63
2023-04-16T05:54:07.082Z,18.48
2023-04-16T05:56:08.625Z,19.90
2023-04-16T05:58:10.231Z,18.65
2023-04-16T06:00:11.867Z,19.45
2023-04-16T06:02:13.508Z,20.10
2023-04-16T06:04:15.184Z,18.90
2023-04-16T06:06:16.702Z,19.17
2023-04-16T06:08:18.203Z,19.58
2023-04-16T06:10:19.661Z,20.05
2023-04-16T06:12:21.025Z,19.42
2023-04-16T06:14:22.485Z,19.10
2023-04-16T06:16:24.003Z,18.95
2023-04-16T06:18:25.593Z,19.35
2023-04-16T06:20:27.014Z,20.23
2023-04-16T06:22:28.705Z,20.67
2023-04-16T06:24:30.098Z,19.67
2023-04-16T06:26:31.520Z,19.83
2023-04-16T06:28:32.926Z,18.73
2023-04-16T06:30:34.437Z,19.65
2023-04-16T06:32:35.908Z,19.63
2023-04-16T06:34:38.735Z,20.27
2023-04-16T06:36:40.284Z,20.90
2023-04-16T06:38:41.729Z,19.67
2023-04-16T06:40:43.142Z,18.25
2023-04-16T06:42:45.649Z,18.38
2023-04-16T06:44:47.727Z,18.38
2023-04-16T06:46:50.054Z,18.90
2023-04-16T06:48:51.584Z,19.40
2023-04-16T06:50:53.002Z,18.27
2023-04-16T06:52:55.274Z,18.20
2023-04-16T06:54:56.689Z,18.77
2023-04-16T06:56:58.092Z,19.48
2023-04-16T06:59:00.889Z,18.30
2023-04-16T07:01:02.699Z,18.35
2023-04-16T07:03:04.258Z,18.15
2023-04-16T07:05:06.192Z,20.02
2023-04-16T07:07:08.187Z,19.77
2023-04-16T07:09:09.758Z,19.30
2023-04-16T07:11:11.764Z,18.42
2023-04-16T07:13:13.401Z,18.20
2023-04-16T07:15:14.799Z,18.63
2023-04-16T07:17:16.252Z,19.73
2023-04-16T07:19:17.661Z,19.40
2023-04-16T07:21:19.281Z,17.63
2023-04-16T07:23:20.714Z,19.20
2023-04-16T07:25:22.139Z,19.48
2023-04-16T07:27:23.728Z,19.88
2023-04-16T07:29:25.164Z,18.83
2023-04-16T07:31:27.237Z,18.50
2023-04-16T07:33:28.621Z,18.20
2023-04-16T07:35:31.380Z,19.23
2023-04-16T07:37:32.863Z,19.67
2023-04-16T07:39:34.291Z,19.90
2023-04-16T07:41:35.808Z,20.05
2023-04-16T07:43:37.345Z,20.60
2023-04-16T07:45:39.598Z,20.75
2023-04-16T07:47:41.912Z,20.25
2023-04-16T07:49:43.347Z,20.77
2023-04-16T07:51:45.136Z,20.40
2023-04-16T07:53:46.555Z,19.60
2023-04-16T07:55:48.058Z,18.88
2023-04-16T07:57:49.511Z,19.85
2023-04-16T07:59:50.922Z,20.23
2023-04-16T08:01:53.999Z,19.50
2023-04-16T08:03:55.753Z,21.48
2023-04-16T08:05:58.068Z,20.98
2023-04-16T08:07:59.487Z,20.60
2023-04-16T08:10:00.853Z,21.23
2023-04-16T08:12:03.601Z,20.98
2023-04-16T08:14:05.151Z,20.73
2023-04-16T08:16:06.965Z,20.20
2023-04-16T08:18:12.835Z,21.17
2023-04-16T08:20:17.586Z,20.02
2023-04-16T08:22:20.801Z,19.67
2023-04-16T08:24:22.196Z,20.60
2023-04-16T08:26:23.661Z,21.30
2023-04-16T08:28:25.093Z,20.63
2023-04-16T08:30:26.608Z,20.42
2023-04-16T08:32:28.224Z,21.48
2023-04-16T08:34:29.628Z,20.13
2023-04-16T08:36:31.294Z,20.70
2023-04-16T08:38:32.713Z,21.98
2023-04-16T08:40:38.670Z,21.65
2023-04-16T08:42:49.025Z,21.80
2023-04-16T08:44:58.741Z,21.30
2023-04-16T08:47:01.173Z,22.23
2023-04-16T08:49:05.793Z,23.38
2023-04-16T08:51:10.584Z,22.52
2023-04-16T08:53:19.107Z,23.98
2023-04-16T08:55:30.785Z,20.55
2023-04-16T08:57:47.047Z,21.75
2023-04-16T08:59:48.742Z,22.83
2023-04-16T09:01:52.316Z,22.88
2023-04-16T09:03:54.144Z,21.50
2023-04-16T09:05:57.922Z,23.38
2023-04-16T09:07:59.359Z,21.85
2023-04-16T09:10:01.586Z,21.35
2023-04-16T09:12:03.590Z,21.75
2023-04-16T09:14:11.081Z,22.45
2023-04-16T09:16:18.420Z,22.23
2023-04-16T09:18:21.191Z,20.88
2023-04-16T09:20:22.684Z,21.23
2023-04-16T09:22:24.150Z,23.35
2023-04-16T09:24:26.085Z,21.63
2023-04-16T09:26:27.800Z,21.35
2023-04-16T09:28:39.138Z,28.20
2023-04-16T09:30:41.007Z,22.45
2023-04-16T09:32:42.428Z,23.80
2023-04-16T09:34:58.280Z,22.25
2023-04-16T09:37:18.398Z,21.55
2023-04-16T09:39:20.251Z,20.55
2023-04-16T09:41:27.453Z,21.38
2023-04-16T09:43:28.934Z,22.23
2023-04-16T09:45:47.664Z,21.58
2023-04-16T09:47:49.083Z,21.25
2023-04-16T09:49:50.765Z,21.70
2023-04-16T09:51:56.100Z,21.30
2023-04-16T09:53:57.518Z,21.30
2023-04-16T09:56:03.600Z,21.10
2023-04-16T09:58:05.035Z,20.75
2023-04-16T10:00:11.743Z,21.92
2023-04-16T10:02:15.360Z,20.30
2023-04-16T10:04:17.848Z,20.45
2023-04-16T10:06:20.730Z,20.45
2023-04-16T10:08:23.993Z,19.50
2023-04-16T10:10:25.841Z,19.83
2023-04-16T10:12:28.738Z,19.00
2023-04-16T10:14:30.304Z,19.38
2023-04-16T10:16:32.954Z,20.55
2023-04-16T10:18:41.929Z,20.52
2023-04-16T10:20:44.362Z,20.63
2023-04-16T10:22:46.167Z,17.95
2023-04-16T10:24:48.688Z,18.08
2023-04-16T10:26:52.360Z,16.73
2023-04-16T10:28:55.101Z,17.17
2023-04-16T10:30:58.640Z,16.58
2023-04-16T10:33:02.256Z,15.82
2023-04-16T10:35:04.758Z,16.42
2023-04-16T10:37:06.434Z,16.02
2023-04-16T10:39:14.766Z,15.60
2023-04-16T10:41:21.122Z,15.43
2023-04-16T10:43:25.317Z,15.50
2023-04-16T10:45:32.116Z,15.52
2023-04-16T10:49:42.357Z,15.77
2023-04-16T10:51:53.137Z,16.63
2023-04-16T10:53:56.273Z,16.65
2023-04-16T10:56:04.517Z,16.75
2023-04-16T10:58:29.853Z,16.02
2023-04-16T11:00:31.263Z,18.15
2023-04-16T11:02:32.997Z,16.25
2023-04-16T11:04:37.401Z,16.27
2023-04-16T11:06:38.896Z,15.30
2023-04-16T11:08:53.373Z,16.02
2023-04-16T11:10:58.520Z,14.73
2023-04-16T11:13:00.254Z,16.10
2023-04-16T11:15:07.428Z,15.45
2023-04-16T11:17:09.943Z,17.60
2023-04-16T11:19:16.586Z,15.15
2023-04-16T11:21:18.271Z,14.55
2023-04-16T11:23:19.706Z,15.30
2023-04-16T11:25:22.780Z,15.43
2023-04-16T11:27:24.613Z,15.10
2023-04-16T11:29:26.051Z,15.07
2023-04-16T11:31:27.590Z,14.88
2023-04-16T11:33:31.561Z,14.38
2023-04-16T11:35:33.355Z,14.80
2023-04-16T11:37:36.426Z,14.45
2023-04-16T11:39:53.049Z,14.77
2023-04-16T11:41:55.452Z,14.73
2023-04-16T11:43:57.389Z,14.55
2023-04-16T11:46:01.637Z,15.20
2023-04-16T11:48:04.204Z,13.02
2023-04-16T11:50:18.612Z,13.20
2023-04-16T11:52:33.782Z,12.75
2023-04-16T11:54:36.555Z,12.88
2023-04-16T11:56:38.030Z,12.68
2023-04-16T11:58:43.058Z,13.32
2023-04-16T12:00:45.189Z,12.18
2023-04-16T12:02:52.072Z,13.30
2023-04-16T12:04:53.956Z,13.32
2023-04-16T12:07:12.265Z,13.32
2023-04-16T12:09:27.149Z,12.82
2023-04-16T12:11:41.258Z,13.50
2023-04-16T12:13:42.666Z,13.20
2023-04-16T12:15:55.948Z,13.02
2023-04-16T12:18:08.033Z,12.45
2023-04-16T12:20:11.648Z,13.23
2023-04-16T12:22:13.169Z,13.18
2023-04-16T12:24:16.922Z,13.88
2023-04-16T12:26:18.379Z,13.23
2023-04-16T12:28:33.938Z,13.43
2023-04-16T12:30:50.578Z,13.05
2023-04-16T12:33:13.037Z,13.30
2023-04-16T12:35:29.821Z,14.10
2023-04-16T12:37:31.492Z,13.75
2023-04-16T12:39:32.912Z,12.60
2023-04-16T12:41:37.490Z,12.18
2023-04-16T12:43:38.955Z,12.40
2023-04-16T12:45:40.705Z,13.05
2023-04-16T12:47:42.142Z,13.52
2023-04-16T12:49:44.696Z,12.82
2023-04-16T12:51:46.823Z,11.07
2023-04-16T12:53:48.610Z,10.98
2023-04-16T12:55:50.487Z,13.63
2023-04-16T12:57:55.596Z,11.68
2023-04-16T12:59:58.308Z,12.63
2023-04-16T13:02:02.260Z,11.35
2023-04-16T13:04:04.109Z,11.30
2023-04-16T13:06:05.793Z,11.27
2023-04-16T13:08:07.245Z,12.18
2023-04-16T13:10:09.603Z,9.98
2023-04-16T13:12:11.405Z,10.63
2023-04-16T13:14:12.781Z,10.65
2023-04-16T13:16:14.266Z,10.93
2023-04-16T13:18:15.853Z,10.02
2023-04-16T13:20:17.550Z,10.32
2023-04-16T13:22:19.041Z,9.70
2023-04-16T13:24:20.596Z,10.48
2023-04-16T13:26:22.074Z,10.43
2023-04-16T13:28:23.496Z,10.35
2023-04-16T13:30:25.570Z,11.40
2023-04-16T13:32:27.117Z,10.98
2023-04-16T13:34:28.573Z,11.80
2023-04-16T13:36:32.027Z,10.90
2023-04-16T13:38:33.559Z,11.88
2023-04-16T13:40:34.940Z,10.88
2023-04-16T13:42:36.342Z,12.02
2023-04-16T13:44:37.739Z,11.73
2023-04-16T13:46:39.216Z,11.95
2023-04-16T13:48:40.804Z,11.07
2023-04-16T13:50:42.321Z,11.80
2023-04-16T13:52:43.772Z,12.32
2023-04-16T13:54:45.216Z,11.13
2023-04-16T13:56:46.690Z,11.27
2023-04-16T13:58:48.574Z,10.85
2023-04-16T14:00:50.178Z,11.02
2023-04-16T14:02:52.553Z,12.95
2023-04-16T14:04:54.179Z,11.15
2023-04-16T14:06:56.073Z,11.05
2023-04-16T14:08:57.678Z,10.68
2023-04-16T14:10:59.192Z,10.90
2023-04-16T14:13:00.621Z,11.05
2023-04-16T14:15:04.303Z,11.48
2023-04-16T14:17:05.707Z,10.68
2023-04-16T14:19:07.113Z,9.68
2023-04-16T14:21:09.181Z,10.30
2023-04-16T14:23:12.374Z,9.82
2023-04-16T14:25:13.815Z,10.30
2023-04-16T14:27:15.354Z,9.75
2023-04-16T14:29:16.855Z,10.05
2023-04-16T14:31:19.831Z,9.13
2023-04-16T14:33:21.274Z,9.95
2023-04-16T14:35:23.232Z,8.95
2023-04-16T14:37:24.796Z,10.00
2023-04-16T14:39:27.068Z,8.80
2023-04-16T14:41:28.526Z,9.32
2023-04-16T14:43:29.984Z,8.95
2023-04-16T14:45:32.434Z,8.93
2023-04-16T14:47:34.909Z,9.55
2023-04-16T14:49:36.360Z,9.13
2023-04-16T14:51:37.814Z,9.68
2023-04-16T14:53:39.303Z,8.77
2023-04-16T14:55:40.741Z,8.43
2023-04-16T14:57:42.263Z,8.93
2023-04-16T14:59:43.792Z,8.82
2023-04-16T15:01:46.109Z,8.52
2023-04-16T15:03:47.778Z,8.98
2023-04-16T15:05:55.356Z,9.10
2023-04-16T15:07:57.160Z,9.30
2023-04-16T15:09:58.951Z,8.18
2023-04-16T15:12:00.693Z,8.88
2023-04-16T15:14:02.094Z,8.88
2023-04-16T15:16:06.642Z,8.88
2023-04-16T15:18:08.533Z,9.32
2023-04-16T15:20:10.516Z,9.48
2023-04-16T15:22:12.546Z,9.30
2023-04-16T15:24:13.957Z,9.45
2023-04-16T15:26:15.439Z,8.77
2023-04-16T15:28:16.923Z,8.52
2023-04-16T15:30:18.559Z,9.23
2023-04-16T15:32:20.038Z,9.45
2023-04-16T15:34:21.457Z,9.15
2023-04-16T15:36:23.103Z,9.70
2023-04-16T15:38:24.555Z,9.75
2023-04-16T15:40:25.996Z,9.70
2023-04-16T15:42:27.448Z,10.35
2023-04-16T15:44:30.225Z,9.55
2023-04-16T15:46:31.926Z,9.75
2023-04-16T15:48:33.385Z,9.95
2023-04-16T15:50:35.143Z,9.65
2023-04-16T15:52:39.359Z,9.77
2023-04-16T15:54:40.973Z,10.10
2023-04-16T15:56:42.460Z,10.45
2023-04-16T15:58:43.932Z,9.30
2023-04-16T16:00:47.522Z,9.90
2023-04-16T16:02:49.008Z,10.10
2023-04-16T16:04:50.727Z,10.68
2023-04-16T16:06:53.034Z,10.38
2023-04-16T16:08:54.724Z,9.95
2023-04-16T16:10:56.393Z,9.68
2023-04-16T16:12:58.089Z,11.05
2023-04-16T16:14:59.651Z,10.45
2023-04-16T16:17:01.213Z,11.00
2023-04-16T16:19:02.693Z,10.48
2023-04-16T16:21:04.324Z,12.10
2023-04-16T16:23:05.822Z,11.25
2023-04-16T16:25:07.588Z,10.50
2023-04-16T16:27:08.981Z,10.75
2023-04-16T16:29:10.543Z,10.65
2023-04-16T16:31:12.470Z,9.90
2023-04-16T16:33:14.403Z,10.23
2023-04-16T16:35:15.918Z,10.00
2023-04-16T16:37:17.386Z,11.07
2023-04-16T16:39:22.275Z,10.50
2023-04-16T16:41:23.688Z,10.40
2023-04-16T16:43:25.152Z,9.30
2023-04-16T16:45:27.111Z,9.77
2023-04-16T16:47:28.596Z,10.48
2023-04-16T16:49:30.167Z,9.25
2023-04-16T16:51:33.545Z,10.27
2023-04-16T16:53:34.912Z,9.98
2023-04-16T16:55:36.417Z,9.50
2023-04-16T16:57:39.066Z,10.02
2023-04-16T16:59:40.470Z,9.35
2023-04-16T17:01:41.856Z,9.77
2023-04-16T17:03:44.246Z,10.18
2023-04-16T17:05:45.893Z,9.52
2023-04-16T17:07:47.382Z,10.13
2023-04-16T17:09:48.863Z,8.35
2023-04-16T17:11:50.320Z,10.00
2023-04-16T17:13:51.882Z,9.27
2023-04-16T17:15:53.257Z,8.68
2023-04-16T17:17:54.720Z,8.68
2023-04-16T17:19:56.221Z,9.10
2023-04-16T17:21:57.601Z,9.60
2023-04-16T17:23:59.151Z,9.60
2023-04-16T17:26:00.656Z,10.32
2023-04-16T17:28:02.739Z,8.80
2023-04-16T17:30:05.679Z,9.60
2023-04-16T17:32:07.237Z,9.68
2023-04-16T17:34:08.843Z,9.20
2023-04-16T17:36:10.570Z,8.60
2023-04-16T17:38:11.974Z,9.00
2023-04-16T17:40:15.458Z,8.75
2023-04-16T17:42:17.392Z,9.13
2023-04-16T17:44:18.925Z,8.45
2023-04-16T17:46:20.456Z,8.80
2023-04-16T17:48:22.036Z,9.55
2023-04-16T17:50:23.461Z,9.10
2023-04-16T17:52:24.902Z,8.85
2023-04-16T17:54:26.572Z,10.20
2023-04-16T17:56:27.997Z,10.30
2023-04-16T17:58:32.796Z,9.52
2023-04-16T18:00:34.222Z,9.30
2023-04-16T18:02:35.788Z,9.50
2023-04-16T18:04:37.445Z,9.48
2023-04-16T18:06:38.958Z,9.32
2023-04-16T18:08:40.361Z,9.25
2023-04-16T18:13:08.349Z,9.13
2023-04-16T18:15:10.434Z,9.02
2023-04-16T18:17:12.913Z,8.70
2023-04-16T18:19:17.119Z,8.70
2023-04-16T18:21:18.535Z,8.13
2023-04-16T18:23:19.921Z,9.25
2023-04-16T18:25:32.305Z,7.95
2023-04-16T18:27:36.210Z,8.52
2023-04-16T18:29:39.867Z,8.13
2023-04-16T18:33:56.589Z,8.70
2023-04-16T18:36:01.762Z,8.82
2023-04-16T18:38:03.181Z,8.60
2023-04-16T18:40:05.725Z,9.32
2023-04-16T18:42:07.796Z,8.20
2023-04-16T18:44:10.875Z,8.40
2023-04-16T18:48:37.893Z,9.07
2023-04-16T18:50:39.279Z,8.27
2023-04-16T18:52:41.072Z,8.73
2023-04-16T18:54:43.484Z,9.18
2023-04-16T18:56:45.018Z,8.98
2023-04-16T18:58:47.559Z,9.57
2023-04-16T19:00:58.338Z,9.73
2023-04-16T19:03:00.006Z,9.48
2023-04-16T19:05:01.727Z,9.73
2023-04-16T19:07:03.639Z,10.02
2023-04-16T19:09:05.047Z,9.57
2023-04-16T19:11:06.520Z,9.25
2023-04-16T19:13:07.964Z,9.45
2023-04-16T19:15:09.736Z,9.57
2023-04-16T19:17:12.237Z,9.70
2023-04-16T19:19:13.930Z,9.48
2023-04-16T19:21:15.486Z,9.40
2023-04-16T19:23:16.963Z,8.90
2023-04-16T19:25:18.435Z,9.80
